Spain, South Dakota
Current Conditions -  °F | °C
As of 1:15 PM on Tuesday 21 Oct 2014 (Local Time) from KGWR Reporting Station
Clear Clear  
Wind Chill: 64°   Ceiling: Unl
Heat Index: 64°   Visibility: 10mi
Dew Point: 43°   Wind: 21mph
Humidity: 45%   Direction: 140°SE
Pressure: 29.91"   Gusts: NA
Location:  45.8144°N, 97.7089°W
Report Text: KGWR 211815Z AUTO 14018KT 10SM CLR 18/06 A2991 RMK A01 P000
Loading
Personal Weather Stations






























Interactive Weather Map
Tropical Storm Tracking
New forecast layout! Learn more

10-Day Weather Forecast

Advertisements
Track Severe Weather on mobile